Time;durP1;ratioP1;P1;durP2;ratioP2;P2;SDS_P1;SDS_P2;PMS_P1;PMS_P2;Temp;Humidity;BMP_temperature;BMP_pressure;BME280_temperature;BME280_humidity;BME280_pressure;Samples;Min_cycle;Max_cycle;Signal;HPM_P1;HPM_P2
2023/10/26 00:01:43;;;;;;;;;;;;;;;10.37;100.00;99604.25;5024686;28;19945;-74
2023/10/26 00:04:08;;;;;;;;;;;;;;;10.45;100.00;99600.13;5030720;28;26309;-74
2023/10/26 00:06:33;;;;;;;;;;;;;;;10.45;100.00;99594.78;5024379;28;19936;-76
2023/10/26 00:08:59;;;;;;;;;;;;;;;10.47;100.00;99603.50;5027793;28;19921;-75
2023/10/26 00:11:24;;;;;;;;;;;;;;;10.48;100.00;99599.84;5029888;28;20551;-75
2023/10/26 00:13:49;;;;;;;;;;;;;;;10.47;100.00;99600.81;5030507;28;20442;-75
2023/10/26 00:16:14;;;;;;;;;;;;;;;10.46;100.00;99596.47;5032295;28;19920;-75
2023/10/26 00:18:40;;;;;;;;;;;;;;;10.49;100.00;99607.75;5029516;28;19928;-74
2023/10/26 00:21:05;;;;;;;;;;;;;;;10.48;100.00;99606.03;5030707;28;19921;-75
2023/10/26 00:23:30;;;;;;;;;;;;;;;10.45;100.00;99610.78;5024420;28;20715;-74
2023/10/26 00:25:57;;;;;;;;;;;;;;;10.46;100.00;99604.47;5026826;28;20833;-75
2023/10/26 00:28:22;;;;;;;;;;;;;;;10.52;100.00;99604.78;5037991;28;19924;-75
2023/10/26 00:30:48;;;;;;;;;;;;;;;10.50;100.00;99604.09;5029301;28;20003;-75
2023/10/26 00:33:13;;;;;;;;;;;;;;;10.47;100.00;99607.00;5030702;28;20664;-75
2023/10/26 00:35:38;;;;;;;;;;;;;;;10.53;100.00;99602.97;5030848;28;19924;-75
2023/10/26 00:38:04;;;;;;;;;;;;;;;10.49;100.00;99602.41;5026380;28;19923;-74
2023/10/26 00:40:29;;;;;;;;;;;;;;;10.50;100.00;99604.09;5033079;28;19920;-75
2023/10/26 00:43:02;;;;;;;;;;;;;;;10.46;100.00;99601.81;5039937;28;20474;-75
2023/10/26 00:45:30;;;;;;;;;;;;;;;10.26;100.00;99598.97;5043270;28;19926;-74
2023/10/26 00:47:56;;;;;;;;;;;;;;;10.27;100.00;99605.13;5035867;28;20019;-74
2023/10/26 00:50:21;;;;;;;;;;;;;;;10.20;100.00;99610.09;5033975;28;20385;-74
2023/10/26 00:52:47;;;;;;;;;;;;;;;10.20;100.00;99612.75;5011176;28;20023;-74
2023/10/26 00:55:12;;;;;;;;;;;;;;;10.18;100.00;99620.00;5031925;28;19921;-74
2023/10/26 00:57:38;;;;;;;;;;;;;;;10.19;100.00;99621.72;5026954;28;19923;-75
2023/10/26 01:00:07;;;;;;;;;;;;;;;10.07;100.00;99620.03;5035774;28;19929;-75
2023/10/26 01:02:33;;;;;;;;;;;;;;;10.05;100.00;99624.66;5048280;28;19925;-75
2023/10/26 01:04:58;;;;;;;;;;;;;;;9.94;100.00;99624.66;5029489;28;20016;-75
2023/10/26 01:07:25;;;;;;;;;;;;;;;9.89;100.00;99622.38;5019620;28;20099;-75
2023/10/26 01:09:50;;;;;;;;;;;;;;;9.85;100.00;99629.75;5030704;28;19921;-76
2023/10/26 01:12:16;;;;;;;;;;;;;;;9.75;100.00;99644.78;5040855;28;20786;-75
2023/10/26 01:14:42;;;;;;;;;;;;;;;9.74;100.00;99642.22;5033772;28;20069;-76
2023/10/26 01:17:07;;;;;;;;;;;;;;;9.69;100.00;99645.25;5030100;28;19948;-75
2023/10/26 01:19:37;;;;;;;;;;;;;;;9.69;100.00;99647.06;5036481;28;19920;-75
2023/10/26 01:22:02;;;;;;;;;;;;;;;9.70;100.00;99659.41;5022912;28;19917;-75
2023/10/26 01:24:28;;;;;;;;;;;;;;;9.67;100.00;99671.13;5027805;28;20880;-75
2023/10/26 01:26:53;;;;;;;;;;;;;;;9.74;100.00;99674.16;5020255;28;19916;-75
2023/10/26 01:29:19;;;;;;;;;;;;;;;9.82;100.00;99680.59;5022447;28;19972;-75
2023/10/26 01:31:44;;;;;;;;;;;;;;;9.77;100.00;99681.91;5035503;28;19928;-76
2023/10/26 01:34:10;;;;;;;;;;;;;;;9.78;100.00;99679.13;5034196;28;19921;-74
2023/10/26 01:36:35;;;;;;;;;;;;;;;9.71;100.00;99691.22;5021758;28;19918;-75
2023/10/26 01:39:00;;;;;;;;;;;;;;;9.78;100.00;99695.09;5035625;28;20446;-75
2023/10/26 01:41:30;;;;;;;;;;;;;;;9.78;100.00;99697.75;5027241;28;19925;-75
2023/10/26 01:43:55;;;;;;;;;;;;;;;9.83;100.00;99694.75;5051289;28;20031;-74
2023/10/26 01:46:21;;;;;;;;;;;;;;;9.79;100.00;99701.28;5031626;28;19918;-74
2023/10/26 01:48:46;;;;;;;;;;;;;;;9.74;100.00;99690.13;5030912;28;19921;-74
2023/10/26 01:51:11;;;;;;;;;;;;;;;9.83;100.00;99694.75;5031251;28;19987;-74
2023/10/26 01:53:37;;;;;;;;;;;;;;;9.82;100.00;99698.38;5048134;28;20155;-75
2023/10/26 01:56:03;;;;;;;;;;;;;;;9.83;100.00;99698.25;5024939;28;19979;-74
2023/10/26 01:58:28;;;;;;;;;;;;;;;9.83;100.00;99686.75;5032654;28;19925;-75
2023/10/26 02:00:53;;;;;;;;;;;;;;;9.89;100.00;99688.94;5029075;28;19990;-74
2023/10/26 02:03:19;;;;;;;;;;;;;;;9.92;100.00;99688.69;5015885;28;19936;-75
2023/10/26 02:05:44;;;;;;;;;;;;;;;9.90;100.00;99687.97;5024355;28;20028;-75
2023/10/26 02:08:10;;;;;;;;;;;;;;;9.94;100.00;99691.22;5027943;28;20680;-74
2023/10/26 02:10:36;;;;;;;;;;;;;;;9.94;100.00;99683.22;5037192;28;20704;-74
2023/10/26 02:13:02;;;;;;;;;;;;;;;9.95;100.00;99682.28;5034504;28;20915;-74
2023/10/26 02:15:28;;;;;;;;;;;;;;;9.94;100.00;99678.78;5032247;28;19917;-75
2023/10/26 02:17:53;;;;;;;;;;;;;;;9.85;100.00;99672.38;5032798;28;19920;-74
2023/10/26 02:20:18;;;;;;;;;;;;;;;9.81;100.00;99680.72;5029817;28;19936;-75
2023/10/26 02:22:44;;;;;;;;;;;;;;;9.83;100.00;99676.94;5021215;28;19920;-74
2023/10/26 02:25:09;;;;;;;;;;;;;;;9.74;100.00;99672.38;5027513;28;20044;-74
2023/10/26 02:27:34;;;;;;;;;;;;;;;9.72;100.00;99678.78;5043859;28;19952;-75
2023/10/26 02:30:00;;;;;;;;;;;;;;;9.72;100.00;99682.28;5060301;28;20806;-74
2023/10/26 02:32:26;;;;;;;;;;;;;;;9.73;100.00;99697.28;5034298;28;19998;-75
2023/10/26 02:34:51;;;;;;;;;;;;;;;9.70;100.00;99697.53;5029502;28;20015;-74
2023/10/26 02:37:18;;;;;;;;;;;;;;;9.77;100.00;99696.06;5030310;28;19921;-75
2023/10/26 02:39:43;;;;;;;;;;;;;;;9.72;100.00;99689.41;5032636;28;19920;-75
2023/10/26 02:42:09;;;;;;;;;;;;;;;9.73;100.00;99686.63;5036421;28;19925;-75
2023/10/26 02:44:34;;;;;;;;;;;;;;;9.85;100.00;99684.84;5015080;28;20784;-76
2023/10/26 02:47:00;;;;;;;;;;;;;;;9.81;100.00;99686.03;5031914;28;19921;-74
2023/10/26 02:49:25;;;;;;;;;;;;;;;9.79;100.00;99677.34;5035678;28;19921;-74
2023/10/26 02:51:50;;;;;;;;;;;;;;;9.73;100.00;99678.63;5034564;28;20723;-75
2023/10/26 02:54:16;;;;;;;;;;;;;;;9.65;100.00;99675.75;5024766;28;19920;-75
2023/10/26 02:56:41;;;;;;;;;;;;;;;9.68;100.00;99685.28;5022082;28;20420;-75
2023/10/26 02:59:07;;;;;;;;;;;;;;;9.67;100.00;99687.09;5060079;28;22482;-75
2023/10/26 03:01:33;;;;;;;;;;;;;;;9.67;100.00;99699.56;5029475;28;19928;-75
2023/10/26 03:03:59;;;;;;;;;;;;;;;9.72;100.00;99708.91;5035245;28;19944;-76
2023/10/26 03:06:25;;;;;;;;;;;;;;;9.72;100.00;99710.72;5033159;28;19917;-75
2023/10/26 03:08:51;;;;;;;;;;;;;;;9.69;100.00;99702.94;5029749;28;19920;-75
2023/10/26 03:11:16;;;;;;;;;;;;;;;9.65;100.00;99701.53;5018234;28;20822;-76
2023/10/26 03:13:42;;;;;;;;;;;;;;;9.54;100.00;99703.19;5033069;28;20028;-75
2023/10/26 03:16:07;;;;;;;;;;;;;;;9.64;100.00;99702.47;5030415;28;19928;-74
2023/10/26 03:18:32;;;;;;;;;;;;;;;9.55;100.00;99698.72;5034857;28;20070;-74
2023/10/26 03:20:58;;;;;;;;;;;;;;;9.48;100.00;99698.34;5035426;28;20011;-75
2023/10/26 03:23:23;;;;;;;;;;;;;;;9.47;100.00;99709.09;5039683;28;19916;-75
2023/10/26 03:25:49;;;;;;;;;;;;;;;9.51;100.00;99707.91;5030312;28;19992;-75
2023/10/26 03:28:14;;;;;;;;;;;;;;;9.55;100.00;99718.19;5028536;28;19974;-74
2023/10/26 03:30:40;;;;;;;;;;;;;;;9.56;100.00;99711.91;5019218;28;19921;-75
2023/10/26 03:33:05;;;;;;;;;;;;;;;9.60;100.00;99724.00;5028707;28;19928;-74
2023/10/26 03:35:33;;;;;;;;;;;;;;;9.67;100.00;99723.53;5017351;28;19926;-75
2023/10/26 03:37:58;;;;;;;;;;;;;;;9.71;100.00;99728.50;5024588;28;20060;-74
2023/10/26 03:40:24;;;;;;;;;;;;;;;9.66;100.00;99712.03;5032517;28;19971;-76
2023/10/26 03:42:49;;;;;;;;;;;;;;;9.64;100.00;99714.00;5029678;28;20684;-75
2023/10/26 03:45:14;;;;;;;;;;;;;;;9.55;100.00;99701.38;5026889;28;19960;-75
2023/10/26 03:47:40;;;;;;;;;;;;;;;9.45;100.00;99701.25;5028173;28;19917;-75
2023/10/26 03:50:06;;;;;;;;;;;;;;;9.42;100.00;99697.97;5026098;28;19921;-75
2023/10/26 03:52:32;;;;;;;;;;;;;;;9.40;100.00;99699.91;5027298;28;20642;-75
2023/10/26 03:54:57;;;;;;;;;;;;;;;9.33;100.00;99703.00;5036352;28;19926;-74
2023/10/26 03:57:22;;;;;;;;;;;;;;;9.33;100.00;99707.50;5024748;28;20035;-75
2023/10/26 03:59:48;;;;;;;;;;;;;;;9.26;100.00;99700.97;5053971;28;19932;-75
2023/10/26 04:02:13;;;;;;;;;;;;;;;9.19;100.00;99707.72;5029456;28;19928;-75
2023/10/26 04:04:40;;;;;;;;;;;;;;;9.22;100.00;99710.13;5025628;28;29360;-75
2023/10/26 04:07:05;;;;;;;;;;;;;;;9.12;100.00;99715.28;5026022;28;19980;-75
2023/10/26 04:09:30;;;;;;;;;;;;;;;9.07;100.00;99710.31;5030162;28;19932;-75
2023/10/26 04:11:56;;;;;;;;;;;;;;;9.10;100.00;99706.59;5028108;28;19929;-76
2023/10/26 04:14:21;;;;;;;;;;;;;;;9.05;100.00;99704.28;5031447;28;20011;-75
2023/10/26 04:16:47;;;;;;;;;;;;;;;9.08;100.00;99708.50;5033384;28;20745;-75
2023/10/26 04:19:16;;;;;;;;;;;;;;;9.07;100.00;99710.31;5034680;28;19935;-74
2023/10/26 04:21:42;;;;;;;;;;;;;;;9.13;100.00;99709.00;5023324;28;19952;-74
2023/10/26 04:24:07;;;;;;;;;;;;;;;9.11;100.00;99700.31;5021676;28;19921;-74
2023/10/26 04:26:32;;;;;;;;;;;;;;;9.11;100.00;99694.16;5027057;28;19917;-75
2023/10/26 04:28:58;;;;;;;;;;;;;;;9.00;100.00;99701.13;5038805;28;19928;-75
2023/10/26 04:31:25;;;;;;;;;;;;;;;8.97;100.00;99704.00;5013606;28;19953;-75
2023/10/26 04:33:51;;;;;;;;;;;;;;;8.93;100.00;99701.69;5018672;28;19916;-74
2023/10/26 04:36:16;;;;;;;;;;;;;;;8.90;100.00;99697.47;5031269;28;19979;-75
2023/10/26 04:38:41;;;;;;;;;;;;;;;8.95;100.00;99708.59;5026921;28;21387;-75
2023/10/26 04:41:07;;;;;;;;;;;;;;;8.95;100.00;99707.75;5035993;28;19929;-74
2023/10/26 04:43:32;;;;;;;;;;;;;;;8.93;100.00;99699.88;5024231;28;20386;-74
2023/10/26 04:45:57;;;;;;;;;;;;;;;8.96;100.00;99709.44;5028884;28;20341;-75
2023/10/26 04:48:23;;;;;;;;;;;;;;;8.95;100.00;99710.41;5036344;28;20449;-75
2023/10/26 04:50:48;;;;;;;;;;;;;;;8.88;100.00;99722.44;5030961;28;19987;-74
2023/10/26 04:53:14;;;;;;;;;;;;;;;8.88;100.00;99714.47;5023121;28;19924;-75
2023/10/26 04:55:39;;;;;;;;;;;;;;;8.85;100.00;99722.69;5021769;28;19971;-75
2023/10/26 04:58:04;;;;;;;;;;;;;;;8.87;100.00;99728.72;5032309;28;20464;-75
2023/10/26 05:00:30;;;;;;;;;;;;;;;8.87;100.00;99724.25;5022259;28;19948;-74
2023/10/26 05:02:55;;;;;;;;;;;;;;;8.89;100.00;99708.22;5026292;28;20046;-74
2023/10/26 05:05:21;;;;;;;;;;;;;;;8.84;100.00;99719.19;5029379;28;20006;-75
2023/10/26 05:07:54;;;;;;;;;;;;;;;8.96;100.00;99707.63;5111712;27;20510;-74
2023/10/26 05:10:20;;;;;;;;;;;;;;;8.91;100.00;99708.94;5109681;27;19924;-74
2023/10/26 05:12:45;;;;;;;;;;;;;;;8.88;100.00;99702.03;5103063;27;19935;-74
2023/10/26 05:15:11;;;;;;;;;;;;;;;8.85;100.00;99698.78;5110538;27;19988;-74
2023/10/26 05:17:37;;;;;;;;;;;;;;;8.87;100.00;99696.84;5109056;27;19928;-75
2023/10/26 05:20:03;;;;;;;;;;;;;;;8.92;100.00;99692.00;5094970;27;19979;-74
2023/10/26 05:22:28;;;;;;;;;;;;;;;8.94;100.00;99688.28;5095499;27;20031;-74
2023/10/26 05:24:54;;;;;;;;;;;;;;;8.98;100.00;99692.41;5109301;27;19928;-74
2023/10/26 05:27:19;;;;;;;;;;;;;;;8.98;100.00;99689.72;5112410;27;19927;-74
2023/10/26 05:29:44;;;;;;;;;;;;;;;9.02;100.00;99688.53;5110826;27;19928;-75
2023/10/26 05:32:10;;;;;;;;;;;;;;;9.05;100.00;99691.00;5111171;27;20471;-74
2023/10/26 05:34:38;;;;;;;;;;;;;;;9.09;100.00;99688.94;5113431;27;19924;-74
2023/10/26 05:37:03;;;;;;;;;;;;;;;9.06;100.00;99682.03;5108895;27;19970;-74
2023/10/26 05:39:34;;;;;;;;;;;;;;;9.03;100.00;99681.41;5107712;27;19966;-75
2023/10/26 05:42:04;;;;;;;;;;;;;;;9.08;100.00;99684.56;5098176;27;21050;-74
2023/10/26 05:44:32;;;;;;;;;;;;;;;9.05;100.00;99677.69;5095990;27;19970;-74
2023/10/26 05:46:59;;;;;;;;;;;;;;;9.05;100.00;99677.69;5106975;27;19924;-74
2023/10/26 05:49:25;;;;;;;;;;;;;;;9.08;100.00;99677.44;5089276;27;19924;-74
2023/10/26 05:51:50;;;;;;;;;;;;;;;9.04;100.00;99668.03;5106468;27;19924;-74
2023/10/26 05:54:15;;;;;;;;;;;;;;;9.07;100.00;99674.91;5108291;27;19962;-75
2023/10/26 05:56:41;;;;;;;;;;;;;;;9.02;100.00;99669.94;5105981;27;19924;-74
2023/10/26 05:59:06;;;;;;;;;;;;;;;9.02;100.00;99671.75;5087696;27;19942;-74
2023/10/26 06:01:32;;;;;;;;;;;;;;;9.06;100.00;99663.44;5109993;27;19972;-74
2023/10/26 06:03:57;;;;;;;;;;;;;;;9.06;100.00;99668.75;5106389;27;20020;-74
2023/10/26 06:06:23;;;;;;;;;;;;;;;9.10;100.00;99663.22;5108516;27;19924;-74
2023/10/26 06:08:48;;;;;;;;;;;;;;;9.06;100.00;99666.09;5091412;27;19923;-74
2023/10/26 06:11:15;;;;;;;;;;;;;;;9.10;100.00;99665.88;5109519;27;20373;-74
2023/10/26 06:13:40;;;;;;;;;;;;;;;9.13;100.00;99668.28;5106173;27;19931;-74
2023/10/26 06:16:05;;;;;;;;;;;;;;;9.07;100.00;99667.78;5108946;27;19934;-74
2023/10/26 06:18:32;;;;;;;;;;;;;;;9.01;100.00;99664.75;5098699;27;19977;-75
2023/10/26 06:20:58;;;;;;;;;;;;;;;9.07;100.00;99667.78;5077519;27;20315;-74
2023/10/26 06:23:24;;;;;;;;;;;;;;;9.14;100.00;99672.66;5095487;27;19968;-74
2023/10/26 06:25:49;;;;;;;;;;;;;;;9.17;100.00;99669.75;5092328;27;19924;-74
2023/10/26 06:28:15;;;;;;;;;;;;;;;9.14;100.00;99664.66;5107398;27;19924;-74
2023/10/26 06:30:40;;;;;;;;;;;;;;;9.12;100.00;99661.25;5099985;27;19920;-74
2023/10/26 06:33:05;;;;;;;;;;;;;;;9.15;100.00;99666.34;5093548;27;19924;-75
2023/10/26 06:35:34;;;;;;;;;;;;;;;9.20;100.00;99659.72;5107741;27;19920;-75
2023/10/26 06:37:59;;;;;;;;;;;;;;;9.27;100.00;99676.03;5093091;27;19938;-75
2023/10/26 06:40:25;;;;;;;;;;;;;;;9.31;100.00;99659.72;5109514;27;20835;-74
2023/10/26 06:42:50;;;;;;;;;;;;;;;9.32;100.00;99657.91;5092913;27;20508;-74
2023/10/26 06:45:15;;;;;;;;;;;;;;;9.38;100.00;99654.78;5082594;27;19978;-74
2023/10/26 06:47:41;;;;;;;;;;;;;;;9.40;100.00;99662.66;5097588;27;19923;-74
2023/10/26 06:50:06;;;;;;;;;;;;;;;9.34;100.00;99667.50;5098461;27;19926;-74
2023/10/26 06:52:32;;;;;;;;;;;;;;;9.32;100.00;99658.75;5094365;27;19955;-74
2023/10/26 06:54:58;;;;;;;;;;;;;;;9.35;100.00;99663.00;5096786;27;19923;-74
2023/10/26 06:57:23;;;;;;;;;;;;;;;9.32;100.00;99664.09;5086274;27;19920;-74
2023/10/26 06:59:49;;;;;;;;;;;;;;;9.32;100.00;99650.78;5091210;27;20549;-72
2023/10/26 07:02:14;;;;;;;;;;;;;;;9.25;100.00;99652.22;5078289;27;19936;-74
2023/10/26 07:04:43;;;;;;;;;;;;;;;9.27;100.00;99649.44;5092209;27;20365;-74
2023/10/26 07:07:08;;;;;;;;;;;;;;;9.36;100.00;99647.91;5097795;27;19924;-74
2023/10/26 07:09:36;;;;;;;;;;;;;;;9.39;100.00;99650.31;5090751;27;20430;-74
2023/10/26 07:12:04;;;;;;;;;;;;;;;9.38;100.00;99649.47;5090711;27;20046;-75
2023/10/26 07:14:34;;;;;;;;;;;;;;;9.46;100.00;99643.56;5097902;27;19998;-74
2023/10/26 07:17:00;;;;;;;;;;;;;;;9.45;100.00;99637.38;5073468;27;19920;-74
2023/10/26 07:19:25;;;;;;;;;;;;;;;9.43;100.00;99649.94;5083745;27;20791;-73
2023/10/26 07:21:54;;;;;;;;;;;;;;;9.55;100.00;99646.34;5095199;27;20389;-73
2023/10/26 07:24:19;;;;;;;;;;;;;;;9.64;100.00;99644.78;5079363;27;19932;-73
2023/10/26 07:26:45;;;;;;;;;;;;;;;9.73;100.00;99641.38;5079585;27;20046;-73
2023/10/26 07:29:10;;;;;;;;;;;;;;;9.73;100.00;99638.72;5074486;27;19920;-73
2023/10/26 07:31:36;;;;;;;;;;;;;;;9.85;100.00;99639.56;5094756;27;20335;-73
2023/10/26 07:34:05;;;;;;;;;;;;;;;9.83;100.00;99638.81;5080159;27;19924;-73
2023/10/26 07:36:31;;;;;;;;;;;;;;;9.92;100.00;99632.78;5092162;27;19919;-73
2023/10/26 07:38:58;;;;;;;;;;;;;;;9.99;100.00;99620.69;5090835;27;19959;-73
2023/10/26 07:41:26;;;;;;;;;;;;;;;10.05;100.00;99625.50;5095307;27;19933;-72
2023/10/26 07:43:52;;;;;;;;;;;;;;;10.03;100.00;99616.78;5077309;27;20447;-73
2023/10/26 07:46:19;;;;;;;;;;;;;;;10.04;100.00;99615.81;5072207;27;19963;-73
2023/10/26 07:48:45;;;;;;;;;;;;;;;10.11;100.00;99608.16;5077379;27;20002;-73
2023/10/26 07:51:10;;;;;;;;;;;;;;;10.13;100.00;99623.03;5098489;27;20464;-73
2023/10/26 07:53:36;;;;;;;;;;;;;;;10.07;100.00;99620.03;5108496;27;20020;-73
2023/10/26 07:56:01;;;;;;;;;;;;;;;9.95;100.00;99623.72;5094281;27;20725;-73
2023/10/26 07:58:27;;;;;;;;;;;;;;;10.02;100.00;99620.41;5090676;27;19927;-73
2023/10/26 08:00:55;;;;;;;;;;;;;;;9.96;100.00;99610.25;5097523;27;19924;-73
2023/10/26 08:03:23;;;;;;;;;;;;;;;10.05;100.00;99614.84;5095408;27;19972;-73
2023/10/26 08:06:00;;;;;;;;;;;;;;;10.14;100.00;99621.25;5099882;27;19919;-73
2023/10/26 08:08:29;;;;;;;;;;;;;;;10.19;100.00;99619.06;5057220;28;19924;-73
2023/10/26 08:11:06;;;;;;;;;;;;;;;10.22;100.00;99615.28;5074549;27;19924;-73
2023/10/26 08:13:31;;;;;;;;;;;;;;;10.35;100.00;99610.69;5076603;27;20076;-73
2023/10/26 08:15:57;;;;;;;;;;;;;;;10.33;100.00;99605.47;5100693;27;20436;-73
2023/10/26 08:18:25;;;;;;;;;;;;;;;10.48;100.00;99611.34;5104896;27;19920;-73
2023/10/26 08:20:51;;;;;;;;;;;;;;;10.51;100.00;99616.44;5090263;27;19974;-73
2023/10/26 08:23:17;;;;;;;;;;;;;;;10.48;100.00;99610.50;5091503;27;19955;-73
2023/10/26 08:25:43;;;;;;;;;;;;;;;10.44;100.00;99609.94;5098518;27;20611;-73
2023/10/26 08:28:08;;;;;;;;;;;;;;;10.52;100.00;99615.47;5075514;27;19926;-73
2023/10/26 08:30:34;;;;;;;;;;;;;;;10.55;100.00;99607.22;5078649;27;19931;-73
2023/10/26 08:32:59;;;;;;;;;;;;;;;10.77;100.00;99603.59;5091517;27;19920;-73
2023/10/26 08:35:25;;;;;;;;;;;;;;;10.80;100.00;99603.34;5092923;27;20038;-73
2023/10/26 08:37:51;;;;;;;;;;;;;;;10.79;100.00;99604.34;5082671;27;19931;-73
2023/10/26 08:40:16;;;;;;;;;;;;;;;10.67;100.00;99607.16;5092929;27;20001;-73
2023/10/26 08:42:44;;;;;;;;;;;;;;;10.60;100.00;99617.50;5092067;27;19928;-73
2023/10/26 08:45:20;;;;;;;;;;;;;;;10.66;100.00;99622.31;5087668;27;20010;-73
2023/10/26 08:47:51;;;;;;;;;;;;;;;10.73;100.00;99626.16;5089646;27;19924;-73
2023/10/26 08:50:21;;;;;;;;;;;;;;;10.76;100.00;99625.91;5100220;27;20037;-72
2023/10/26 08:52:46;;;;;;;;;;;;;;;10.91;100.00;99631.78;5093641;27;20011;-73
2023/10/26 08:55:12;;;;;;;;;;;;;;;11.14;100.00;99633.34;5091427;27;20861;-73
2023/10/26 08:57:48;;;;;;;;;;;;;;;11.32;100.00;99636.25;5076617;27;19920;-73
2023/10/26 09:00:14;;;;;;;;;;;;;;;11.44;100.00;99634.34;5075984;27;19930;-73
2023/10/26 09:02:40;;;;;;;;;;;;;;;11.58;100.00;99630.47;5072429;27;20479;-73
2023/10/26 09:05:08;;;;;;;;;;;;;;;11.65;100.00;99632.50;5073583;27;20054;-73
2023/10/26 09:07:36;;;;;;;;;;;;;;;11.77;100.00;99627.06;5092122;27;19924;-73
2023/10/26 09:10:02;;;;;;;;;;;;;;;11.71;100.00;99631.13;5095954;27;20148;-73
2023/10/26 09:12:27;;;;;;;;;;;;;;;11.64;100.00;99636.13;5091306;27;19970;-73
2023/10/26 09:14:59;;;;;;;;;;;;;;;11.71;100.00;99639.13;5091576;27;20014;-73
2023/10/26 09:17:25;;;;;;;;;;;;;;;11.60;100.00;99636.56;5097243;27;19928;-73
2023/10/26 09:19:51;;;;;;;;;;;;;;;11.65;100.00;99632.50;5079454;27;20529;-73
2023/10/26 09:22:16;;;;;;;;;;;;;;;11.65;100.00;99629.00;5091517;27;19980;-73
2023/10/26 09:24:41;;;;;;;;;;;;;;;11.57;100.00;99621.63;5107594;27;20333;-73
2023/10/26 09:27:15;;;;;;;;;;;;;;;11.44;100.00;99621.00;5082175;27;19940;-73
2023/10/26 09:29:41;;;;;;;;;;;;;;;11.64;100.00;99620.09;5096416;27;19938;-73
2023/10/26 09:32:07;;;;;;;;;;;;;;;11.71;100.00;99617.75;5091619;27;19924;-73
2023/10/26 09:34:42;;;;;;;;;;;;;;;11.84;100.00;99617.53;5090438;27;19998;-73
2023/10/26 09:37:09;;;;;;;;;;;;;;;11.91;100.00;99614.22;5079978;27;19928;-73
2023/10/26 09:39:35;;;;;;;;;;;;;;;11.93;100.00;99614.06;5084603;27;19946;-73
2023/10/26 09:42:01;;;;;;;;;;;;;;;12.10;100.00;99604.56;5096587;27;20765;-73
2023/10/26 09:44:27;;;;;;;;;;;;;;;12.31;100.00;99607.13;5096360;27;20445;-73
2023/10/26 09:46:53;;;;;;;;;;;;;;;12.34;100.00;99596.13;5071951;27;19924;-73
2023/10/26 09:49:19;;;;;;;;;;;;;;;12.34;100.00;99598.81;5082444;27;19927;-74
2023/10/26 09:51:45;;;;;;;;;;;;;;;12.25;100.00;99605.84;5091086;27;19919;-73
2023/10/26 09:54:13;;;;;;;;;;;;;;;12.14;100.00;99612.13;5094098;27;19919;-73
2023/10/26 09:56:41;;;;;;;;;;;;;;;11.98;100.00;99608.31;5093201;27;19931;-73
2023/10/26 09:59:06;;;;;;;;;;;;;;;11.92;100.00;99618.56;5100786;27;19935;-73
2023/10/26 10:01:35;;;;;;;;;;;;;;;11.77;100.00;99619.03;5101116;27;20015;-74
2023/10/26 10:04:01;;;;;;;;;;;;;;;11.57;100.00;99628.78;5094250;27;19927;-73
2023/10/26 10:06:45;;;;;;;;;;;;;;;11.61;100.00;99628.41;5079983;27;20039;-73
2023/10/26 10:09:10;;;;;;;;;;;;;;;11.59;100.00;99638.34;5099207;27;19985;-73
2023/10/26 10:11:36;;;;;;;;;;;;;;;11.63;100.00;99626.44;5091713;27;20027;-73
2023/10/26 10:14:02;;;;;;;;;;;;;;;11.65;100.00;99620.97;5091471;27;20001;-74
2023/10/26 10:16:47;;;;;;;;;;;;;;;11.74;100.00;99625.47;5085871;27;19924;-73
2023/10/26 10:19:16;;;;;;;;;;;;;;;12.02;100.00;99626.59;5095586;27;19924;-73
2023/10/26 10:21:41;;;;;;;;;;;;;;;12.09;100.00;99621.56;5113240;27;19920;-73
2023/10/26 10:24:06;;;;;;;;;;;;;;;12.12;100.00;99624.81;5095628;27;20407;-73
2023/10/26 10:26:51;;;;;;;;;;;;;;;12.24;100.00;99612.16;5095287;27;20050;-74
2023/10/26 10:29:21;;;;;;;;;;;;;;;12.42;100.00;99605.16;5075484;27;19928;-73
2023/10/26 10:31:46;;;;;;;;;;;;;;;12.59;100.00;99602.75;5081331;27;19934;-73
2023/10/26 10:34:16;;;;;;;;;;;;;;;12.95;100.00;99582.47;5102469;27;19958;-73
2023/10/26 10:37:00;;;;;;;;;;;;;;;13.14;100.00;99576.22;5094564;27;19923;-73
2023/10/26 10:39:26;;;;;;;;;;;;;;;13.15;100.00;99562.72;5122880;27;19934;-73
2023/10/26 10:41:51;;;;;;;;;;;;;;;13.15;100.00;99560.03;5098923;27;20502;-73
2023/10/26 10:44:17;;;;;;;;;;;;;;;13.28;100.00;99559.75;5097813;27;20498;-73
2023/10/26 10:46:46;;;;;;;;;;;;;;;13.29;100.00;99566.78;5102789;27;19931;-73
2023/10/26 10:49:11;;;;;;;;;;;;;;;13.30;100.00;99565.78;5101456;27;19947;-73
2023/10/26 10:51:38;;;;;;;;;;;;;;;13.19;100.00;99552.53;5081208;27;20742;-74
2023/10/26 10:54:04;;;;;;;;;;;;;;;12.96;100.00;99565.44;5099506;27;20472;-73
2023/10/26 10:56:37;;;;;;;;;;;;;;;12.82;100.00;99564.03;5099625;27;20834;-73
2023/10/26 10:59:14;;;;;;;;;;;;;;;12.73;100.00;99564.91;5103307;27;19935;-73
2023/10/26 11:01:39;;;;;;;;;;;;;;;12.53;100.00;99566.75;5076586;27;19923;-73
2023/10/26 11:04:06;;;;;;;;;;;;;;;12.31;100.00;99557.19;5094771;27;19963;-73
2023/10/26 11:06:32;;;;;;;;;;;;;;;12.33;100.00;99562.38;5100276;27;19931;-73
2023/10/26 11:08:58;;;;;;;;;;;;;;;12.34;100.00;99566.72;5098809;27;19931;-73
2023/10/26 11:11:27;;;;;;;;;;;;;;;12.36;100.00;99568.28;5080652;27;19929;-73
2023/10/26 11:14:11;;;;;;;;;;;;;;;12.25;100.00;99563.09;5093320;27;19924;-73
2023/10/26 11:16:37;;;;;;;;;;;;;;;12.15;100.00;99562.25;5092176;27;19926;-73
2023/10/26 11:19:04;;;;;;;;;;;;;;;12.23;100.00;99559.69;5094288;27;19925;-73
2023/10/26 11:21:29;;;;;;;;;;;;;;;12.18;100.00;99562.78;5080332;27;20389;-73
2023/10/26 11:23:55;;;;;;;;;;;;;;;12.21;100.00;99558.16;5099137;27;20562;-73
2023/10/26 11:26:20;;;;;;;;;;;;;;;11.97;100.00;99545.19;5099621;27;19924;-73
2023/10/26 11:28:45;;;;;;;;;;;;;;;12.10;100.00;99556.47;5093373;27;20018;-73
2023/10/26 11:31:11;;;;;;;;;;;;;;;12.09;100.00;99552.06;5110233;27;20916;-73
2023/10/26 11:33:39;;;;;;;;;;;;;;;12.12;100.00;99562.50;5100497;27;20016;-73
2023/10/26 11:36:11;;;;;;;;;;;;;;;12.05;100.00;99572.91;5101795;27;20956;-73
2023/10/26 11:38:44;;;;;;;;;;;;;;;12.09;100.00;99578.78;5095917;27;19924;-73
2023/10/26 11:41:10;;;;;;;;;;;;;;;12.14;100.00;99568.53;5099421;27;20030;-73
2023/10/26 11:43:37;;;;;;;;;;;;;;;12.08;100.00;99564.59;5087508;27;19930;-73
2023/10/26 11:46:05;;;;;;;;;;;;;;;12.18;100.00;99557.44;5095375;27;19947;-73
2023/10/26 11:48:32;;;;;;;;;;;;;;;12.15;100.00;99564.91;5075483;27;19924;-73
2023/10/26 11:50:58;;;;;;;;;;;;;;;12.02;100.00;99565.16;5097130;27;19947;-73
2023/10/26 11:53:24;;;;;;;;;;;;;;;11.98;100.00;99565.56;5080387;27;19920;-73
2023/10/26 11:55:50;;;;;;;;;;;;;;;11.84;100.00;99564.97;5093382;27;19989;-73
2023/10/26 11:58:15;;;;;;;;;;;;;;;11.74;100.00;99560.53;5098277;27;20819;-73
2023/10/26 12:00:44;;;;;;;;;;;;;;;11.73;100.00;99558.88;5096789;27;19920;-73
2023/10/26 12:03:09;;;;;;;;;;;;;;;11.74;100.00;99563.22;5094981;27;19928;-74
2023/10/26 12:05:35;;;;;;;;;;;;;;;11.91;100.00;99565.28;5092855;27;19928;-73
2023/10/26 12:08:01;;;;;;;;;;;;;;;11.72;100.00;99565.19;5081782;27;19927;-73
2023/10/26 12:10:27;;;;;;;;;;;;;;;11.58;100.00;99569.06;5079034;27;19920;-73
2023/10/26 12:12:52;;;;;;;;;;;;;;;11.68;100.00;99573.47;5080486;27;20676;-73
2023/10/26 12:15:18;;;;;;;;;;;;;;;11.65;100.00;99571.09;5073413;27;19922;-74
2023/10/26 12:17:44;;;;;;;;;;;;;;;11.75;100.00;99568.44;5079136;27;19984;-73
2023/10/26 12:20:11;;;;;;;;;;;;;;;11.72;100.00;99570.53;5097463;27;20039;-73
2023/10/26 12:22:36;;;;;;;;;;;;;;;11.68;100.00;99568.13;5105565;27;19929;-73
2023/10/26 12:25:04;;;;;;;;;;;;;;;11.51;100.00;99567.94;5094995;27;21410;-73
2023/10/26 12:27:30;;;;;;;;;;;;;;;11.68;100.00;99567.28;5092900;27;19981;-73
2023/10/26 12:29:55;;;;;;;;;;;;;;;11.83;100.00;99562.44;5099993;27;20131;-73
2023/10/26 12:32:20;;;;;;;;;;;;;;;11.90;100.00;99568.94;5080887;27;20019;-73
2023/10/26 12:34:46;;;;;;;;;;;;;;;12.16;100.00;99556.75;5096619;27;19920;-73
2023/10/26 12:37:11;;;;;;;;;;;;;;;12.31;100.00;99559.00;5091808;27;20333;-73
2023/10/26 12:39:37;;;;;;;;;;;;;;;12.23;100.00;99551.69;5078688;27;19966;-73